Terminal Aerodrome Forecast
Issued by NWS

Home | Current Version | Previous Version | Text Only | Print | Product List | Glossary On
Versions: 1 2 3 4 5 6 7 8 9 10 11 12 13 14
879
FTUS45 KREV 292331
TAFMMH
TAF
KMMH 292331Z 3000/3024 28015G28KT P6SM SCT060 BKN120
     FM300700 28020G32KT 4SM -RASN SCT015 OVC025
     FM301800 30012G22KT P6SM SCT025 BKN040=

USA.gov is the U.S. government's official web portal to all federal, state and local government web resources and services.